Time;durP1;ratioP1;P1;durP2;ratioP2;P2;SDS_P1;SDS_P2;PMS_P1;PMS_P2;Temp;Humidity;BMP_temperature;BMP_pressure;BME280_temperature;BME280_humidity;BME280_pressure;Samples;Min_cycle;Max_cycle;Signal;HPM_P1;HPM_P2
2022/02/25 00:01:04;;;;;;;12.40;3.87;;;2.90;90.20;;;;;;5063864;28;20192;-93
2022/02/25 00:03:46;;;;;;;13.37;3.57;;;3.00;90.10;;;;;;5064118;28;20171;-93
2022/02/25 00:06:17;;;;;;;11.90;3.30;;;3.00;89.90;;;;;;5062745;28;20173;-93
2022/02/25 00:08:52;;;;;;;8.90;3.50;;;3.00;89.70;;;;;;5061270;28;20569;-92
2022/02/25 00:11:17;;;;;;;11.70;3.57;;;3.00;89.80;;;;;;5063825;28;20170;-93
2022/02/25 00:13:44;;;;;;;18.53;3.63;;;3.10;89.30;;;;;;5062872;28;20744;-93
2022/02/25 00:16:09;;;;;;;16.03;4.13;;;3.00;89.30;;;;;;5062119;28;20242;-93
2022/02/25 00:18:41;;;;;;;9.30;3.00;;;3.10;89.40;;;;;;5063062;28;20249;-93
2022/02/25 00:21:09;;;;;;;12.83;4.20;;;3.10;89.50;;;;;;5062723;28;20187;-93
2022/02/25 00:23:38;;;;;;;5.90;2.63;;;3.10;89.40;;;;;;5063731;28;20536;-94
2022/02/25 00:26:07;;;;;;;12.30;3.07;;;3.10;89.30;;;;;;5062120;28;20261;-93
2022/02/25 00:42:59;;;;;;;13.47;4.27;;;3.00;88.70;;;;;;5143078;23;20234;-94
2022/02/25 00:45:37;;;;;;;13.33;2.80;;;2.90;88.80;;;;;;5063303;28;20182;-93
2022/02/25 00:48:20;;;;;;;14.47;3.43;;;2.90;88.90;;;;;;5053575;28;20277;-94
2022/02/25 01:37:44;;;;;;;10.63;3.33;;;3.10;87.90;;;;;;4881735;26;20223;-94
2022/02/25 01:40:25;;;;;;;8.83;3.20;;;3.20;87.60;;;;;;5059065;28;20180;-94
2022/02/25 03:54:39;;;;;;;15.53;3.40;;;3.00;87.90;;;;;;633847;23;22857;-89
2022/02/25 04:02:23;;;;;;;21.40;4.03;;;3.00;87.70;;;;;;5075634;23;20243;-93
2022/02/25 04:04:49;;;;;;;14.47;4.80;;;3.00;87.60;;;;;;5021676;28;20196;-92
2022/02/25 04:07:21;;;;;;;9.90;2.83;;;3.00;87.70;;;;;;5015394;28;20216;-94
2022/02/25 04:10:08;;;;;;;9.83;2.70;;;3.00;88.00;;;;;;5020595;28;20166;-94
2022/02/25 04:13:12;;;;;;;12.80;3.23;;;3.20;87.60;;;;;;5017840;28;20193;-94
2022/02/25 04:18:26;;;;;;;16.10;4.07;;;3.30;86.70;;;;;;4980415;28;20232;-94
2022/02/25 04:21:07;;;;;;;13.93;3.20;;;3.30;87.00;;;;;;5020321;28;20186;-93
2022/02/25 04:23:42;;;;;;;14.40;3.57;;;3.30;86.70;;;;;;5018263;28;20226;-93
2022/02/25 04:26:10;;;;;;;8.77;3.37;;;3.30;86.70;;;;;;5014085;28;20173;-94
2022/02/25 04:28:55;;;;;;;8.83;2.70;;;3.30;86.60;;;;;;5020543;28;20181;-94
2022/02/25 04:31:23;;;;;;;12.23;2.93;;;3.30;86.70;;;;;;5015691;28;20169;-94
2022/02/25 04:33:52;;;;;;;9.50;2.60;;;3.30;86.30;;;;;;5020016;28;20227;-93
2022/02/25 04:36:29;;;;;;;14.73;3.40;;;3.30;86.20;;;;;;5015655;28;20186;-92
2022/02/25 04:38:55;;;;;;;7.43;2.77;;;3.30;86.40;;;;;;5020121;28;20202;-94
2022/02/25 04:41:36;;;;;;;10.83;2.93;;;3.30;86.30;;;;;;5018972;28;20199;-94
2022/02/25 04:44:07;;;;;;;15.67;3.40;;;3.30;86.10;;;;;;5019271;28;20192;-94
2022/02/25 04:46:42;;;;;;;10.47;2.60;;;3.30;86.10;;;;;;5019474;28;20166;-94
2022/02/25 04:49:17;;;;;;;6.63;2.37;;;3.30;86.00;;;;;;5013831;28;20265;-94
2022/02/25 04:52:06;;;;;;;9.63;2.77;;;3.30;86.30;;;;;;5019762;28;20169;-94
2022/02/25 04:54:57;;;;;;;9.37;3.33;;;3.20;86.50;;;;;;5003125;28;20145;-94
2022/02/25 04:57:26;;;;;;;7.30;2.73;;;3.30;86.30;;;;;;5015288;28;20178;-94
2022/02/25 04:59:58;;;;;;;6.17;2.00;;;3.30;86.20;;;;;;5019081;28;20229;-93
2022/02/25 05:02:35;;;;;;;17.40;3.30;;;3.30;86.10;;;;;;5014393;28;20220;-93
2022/02/25 05:05:06;;;;;;;11.73;2.77;;;3.40;85.80;;;;;;5019395;28;20160;-94
2022/02/25 05:07:34;;;;;;;19.90;3.33;;;3.40;86.10;;;;;;5018936;28;20183;-95
2022/02/25 05:10:09;;;;;;;6.37;3.20;;;3.40;86.10;;;;;;5011590;28;20162;-94
2022/02/25 05:12:41;;;;;;;5.27;2.10;;;3.40;86.00;;;;;;5018360;28;20175;-94
2022/02/25 05:20:39;;;;;;;10.90;2.53;;;3.40;86.10;;;;;;5018221;28;20169;-94
2022/02/25 05:23:07;;;;;;;13.07;3.03;;;3.40;85.80;;;;;;5009118;28;20189;-94
2022/02/25 05:25:36;;;;;;;3.97;2.20;;;3.50;85.30;;;;;;5013285;28;20189;-93
2022/02/25 05:28:02;;;;;;;12.30;2.40;;;3.50;85.60;;;;;;5007385;28;20214;-93
2022/02/25 05:30:28;;;;;;;10.53;2.97;;;3.60;85.30;;;;;;5014804;28;20298;-94
2022/02/25 05:32:57;;;;;;;15.33;3.07;;;3.60;85.60;;;;;;5016155;28;20192;-93
2022/02/25 05:35:26;;;;;;;4.53;2.13;;;3.60;85.50;;;;;;5015625;28;20177;-94
2022/02/25 05:37:52;;;;;;;22.60;3.40;;;3.70;85.60;;;;;;5014631;28;20272;-94
2022/02/25 05:40:22;;;;;;;11.57;2.90;;;3.70;85.40;;;;;;5009575;28;20174;-94
2022/02/25 05:42:51;;;;;;;9.60;2.80;;;3.70;84.90;;;;;;5018007;28;20169;-94
2022/02/25 05:45:29;;;;;;;9.20;2.27;;;3.70;84.90;;;;;;5012525;28;20158;-94
2022/02/25 05:47:58;;;;;;;11.80;2.43;;;3.70;84.90;;;;;;5017262;28;20186;-95
2022/02/25 05:50:27;;;;;;;3.63;1.73;;;3.70;85.00;;;;;;5016390;28;20169;-94
2022/02/25 05:52:59;;;;;;;14.60;3.60;;;3.70;84.90;;;;;;5014978;28;20567;-93
2022/02/25 05:55:25;;;;;;;9.57;3.03;;;3.70;84.80;;;;;;5013382;28;20181;-93
2022/02/25 05:57:54;;;;;;;11.40;3.70;;;3.80;85.00;;;;;;5013746;28;20252;-94
2022/02/25 06:00:27;;;;;;;8.37;2.23;;;3.70;84.80;;;;;;5009161;28;20185;-93
2022/02/25 06:02:55;;;;;;;10.97;3.37;;;3.80;84.60;;;;;;5011752;28;20182;-93
2022/02/25 06:05:38;;;;;;;10.87;2.53;;;3.70;84.70;;;;;;5013640;28;20190;-94
2022/02/25 06:08:08;;;;;;;16.23;2.97;;;3.70;84.70;;;;;;5012709;28;20202;-94
2022/02/25 06:10:37;;;;;;;6.13;2.33;;;3.70;84.70;;;;;;5014017;28;20182;-94
2022/02/25 06:13:05;;;;;;;15.43;3.73;;;3.70;84.90;;;;;;5009135;28;20234;-94
2022/02/25 06:15:38;;;;;;;10.97;3.23;;;3.70;84.90;;;;;;5015247;28;20161;-94
2022/02/25 06:18:09;;;;;;;12.93;2.93;;;3.60;85.00;;;;;;5006664;28;20229;-94
2022/02/25 06:20:37;;;;;;;16.33;2.80;;;3.60;84.90;;;;;;5014379;28;20192;-93
2022/02/25 06:23:04;;;;;;;9.37;3.00;;;3.60;84.90;;;;;;5006491;28;20178;-93
2022/02/25 06:25:35;;;;;;;7.23;2.40;;;3.70;84.60;;;;;;5012125;28;20186;-93
2022/02/25 06:28:05;;;;;;;4.47;2.60;;;3.60;84.60;;;;;;5005726;28;20225;-93
2022/02/25 06:30:34;;;;;;;7.70;3.23;;;3.60;84.60;;;;;;5012318;28;20190;-92
2022/02/25 06:33:18;;;;;;;12.37;3.97;;;3.70;84.60;;;;;;5004201;28;20182;-93
2022/02/25 06:35:49;;;;;;;10.07;3.43;;;3.70;84.40;;;;;;5009230;28;20169;-92
2022/02/25 06:38:18;;;;;;;8.30;2.77;;;3.70;83.70;;;;;;5004359;28;20205;-93
2022/02/25 06:40:46;;;;;;;6.70;2.70;;;3.70;83.60;;;;;;5006704;28;20192;-93
2022/02/25 06:43:15;;;;;;;7.43;2.60;;;3.60;84.10;;;;;;5001414;28;20252;-93
2022/02/25 06:45:40;;;;;;;16.43;3.90;;;3.60;84.70;;;;;;5010732;28;20166;-93
2022/02/25 06:48:24;;;;;;;11.73;3.17;;;3.60;84.30;;;;;;5037898;23;20233;-92
2022/02/25 06:50:53;;;;;;;14.27;3.10;;;3.60;84.40;;;;;;4993004;28;20171;-93
2022/02/25 06:53:18;;;;;;;16.83;4.20;;;3.60;84.80;;;;;;4992883;28;20190;-94
2022/02/25 06:55:47;;;;;;;12.30;3.37;;;3.70;84.30;;;;;;4989528;28;20652;-93
2022/02/25 06:58:14;;;;;;;7.93;3.37;;;3.60;84.20;;;;;;4984825;28;20210;-93
2022/02/25 07:00:40;;;;;;;7.83;2.77;;;3.60;84.60;;;;;;4986501;28;20179;-93
2022/02/25 07:03:06;;;;;;;20.63;3.67;;;3.70;84.30;;;;;;4989187;28;20184;-93
2022/02/25 07:05:39;;;;;;;13.80;3.50;;;3.70;83.70;;;;;;4988682;28;20206;-92
2022/02/25 07:08:09;;;;;;;25.70;4.13;;;3.70;84.10;;;;;;4991567;28;20225;-93
2022/02/25 07:10:36;;;;;;;11.27;3.73;;;3.70;83.80;;;;;;4990169;28;20185;-93
2022/02/25 07:13:03;;;;;;;11.17;2.53;;;3.80;84.00;;;;;;4989459;28;20185;-92
2022/02/25 07:15:29;;;;;;;7.10;2.53;;;3.80;83.80;;;;;;4980106;28;20214;-91
2022/02/25 07:17:56;;;;;;;13.37;3.13;;;3.80;83.90;;;;;;4974439;28;20210;-92
2022/02/25 07:20:24;;;;;;;7.00;2.73;;;3.80;84.50;;;;;;4987048;28;20186;-92
2022/02/25 07:22:50;;;;;;;7.30;2.27;;;3.90;84.50;;;;;;4978503;28;20183;-93
2022/02/25 07:25:38;;;;;;;17.40;3.70;;;3.90;84.40;;;;;;4981110;28;20183;-92
2022/02/25 07:28:20;;;;;;;18.83;2.87;;;3.90;84.80;;;;;;4995083;28;20237;-92
2022/02/25 07:30:48;;;;;;;9.73;2.53;;;3.90;84.10;;;;;;4990685;28;20190;-93
2022/02/25 07:33:21;;;;;;;10.73;3.37;;;3.80;83.60;;;;;;4984998;28;20186;-93
2022/02/25 07:35:47;;;;;;;11.77;3.17;;;3.80;84.30;;;;;;4980105;28;20175;-93
2022/02/25 07:38:21;;;;;;;9.23;2.70;;;3.80;85.00;;;;;;4991629;28;20222;-93
2022/02/25 07:41:25;;;;;;;5.03;2.20;;;3.80;84.80;;;;;;4995478;28;20619;-93
2022/02/25 07:44:02;;;;;;;13.57;3.47;;;3.80;84.90;;;;;;4995016;28;20166;-92
2022/02/25 07:47:19;;;;;;;15.25;3.65;;;3.80;85.20;;;;;;4994457;28;20919;-93
2022/02/25 07:49:20;;;;;;;17.15;5.30;;;3.80;85.40;;;;;;4982545;28;20478;-93
2022/02/25 07:54:39;;;;;;;11.00;3.90;;;3.70;85.20;;;;;;4982372;28;20179;-93
2022/02/25 07:57:25;;;;;;;6.73;2.90;;;3.60;85.90;;;;;;4995564;28;20251;-93
2022/02/25 07:59:57;;;;;;;8.27;2.77;;;3.50;86.10;;;;;;4997399;28;20217;-92
2022/02/25 08:02:22;;;;;;;9.77;3.73;;;3.40;86.60;;;;;;4997047;28;20705;-92
2022/02/25 08:04:49;;;;;;;6.67;3.00;;;3.40;87.00;;;;;;4995764;28;20187;-92
2022/02/25 08:07:20;;;;;;;15.07;3.57;;;3.50;87.10;;;;;;4991865;28;20193;-94
2022/02/25 08:09:47;;;;;;;11.37;3.93;;;3.50;87.40;;;;;;4993211;28;20186;-94
2022/02/25 08:12:23;;;;;;;10.70;3.33;;;3.50;87.00;;;;;;4996660;28;20174;-93
2022/02/25 08:15:02;;;;;;;11.40;3.67;;;3.40;87.00;;;;;;5000392;28;20155;-94
2022/02/25 08:17:31;;;;;;;16.77;3.57;;;3.40;87.60;;;;;;5001219;28;20171;-95
2022/02/25 08:20:12;;;;;;;8.87;3.50;;;3.50;87.40;;;;;;5000930;28;20189;-93
2022/02/25 08:30:29;;;;;;;12.63;4.23;;;3.60;87.40;;;;;;5153550;23;20245;-93
2022/02/25 08:33:00;;;;;;;19.27;4.53;;;3.70;87.40;;;;;;4970093;28;20284;-93
2022/02/25 08:35:33;;;;;;;10.17;3.50;;;3.80;86.70;;;;;;4970034;28;20195;-93
2022/02/25 08:38:03;;;;;;;11.33;3.93;;;3.80;86.90;;;;;;4973486;28;20217;-93
2022/02/25 08:40:39;;;;;;;18.03;4.70;;;3.80;86.70;;;;;;4978648;28;20197;-93
2022/02/25 08:43:07;;;;;;;7.57;3.20;;;3.90;87.10;;;;;;4981479;28;20190;-93
2022/02/25 08:45:34;;;;;;;8.53;3.30;;;3.80;87.30;;;;;;4980143;28;20170;-92
2022/02/25 08:48:02;;;;;;;11.70;3.90;;;3.80;86.90;;;;;;4976228;28;20218;-92
2022/02/25 08:50:28;;;;;;;14.83;5.13;;;3.80;87.00;;;;;;4974951;28;20226;-93
2022/02/25 08:52:59;;;;;;;18.73;4.13;;;3.80;87.10;;;;;;4975003;28;20651;-93
2022/02/25 08:55:25;;;;;;;7.10;3.40;;;3.90;87.40;;;;;;4974720;28;20608;-93
2022/02/25 08:57:57;;;;;;;15.07;5.60;;;3.90;87.40;;;;;;4975318;28;20210;-93
2022/02/25 09:00:25;;;;;;;23.37;5.73;;;3.90;87.40;;;;;;4975757;28;20213;-93
2022/02/25 09:02:57;;;;;;;14.97;5.33;;;3.90;87.30;;;;;;4977612;28;20263;-93
2022/02/25 09:05:24;;;;;;;7.23;2.90;;;4.00;87.00;;;;;;4976047;28;20166;-93
2022/02/25 09:07:53;;;;;;;19.40;4.63;;;4.20;86.50;;;;;;4981930;28;20242;-93
2022/02/25 09:10:28;;;;;;;14.70;4.07;;;4.30;86.30;;;;;;4982867;28;20241;-93
2022/02/25 09:13:17;;;;;;;17.87;5.10;;;4.40;85.50;;;;;;4981135;28;20202;-93
2022/02/25 09:15:45;;;;;;;11.27;3.40;;;4.50;85.80;;;;;;4977422;28;20195;-93
2022/02/25 09:18:38;;;;;;;18.40;4.90;;;4.60;85.80;;;;;;4979363;28;20277;-91
2022/02/25 09:21:19;;;;;;;10.80;4.70;;;4.50;86.00;;;;;;5142265;23;20239;-94
2022/02/25 09:23:47;;;;;;;7.57;3.53;;;4.50;85.90;;;;;;4975759;28;20186;-93
2022/02/25 09:26:15;;;;;;;8.10;3.30;;;4.40;86.00;;;;;;4989442;28;20174;-93
2022/02/25 09:28:41;;;;;;;12.77;4.60;;;4.40;86.00;;;;;;4974172;28;20199;-92
2022/02/25 09:31:07;;;;;;;14.37;5.07;;;4.30;86.20;;;;;;4973330;28;20190;-93
2022/02/25 09:33:34;;;;;;;8.33;4.20;;;4.30;85.60;;;;;;5052341;23;20237;-93
2022/02/25 09:35:59;;;;;;;9.20;3.73;;;4.40;86.10;;;;;;4969460;28;20175;-93
2022/02/25 09:38:25;;;;;;;15.47;4.80;;;4.40;85.90;;;;;;4971811;28;20217;-93
2022/02/25 09:40:50;;;;;;;10.23;3.50;;;4.40;86.00;;;;;;4974672;28;20241;-93
2022/02/25 09:43:17;;;;;;;13.23;4.73;;;4.40;85.50;;;;;;4966935;28;20179;-92
2022/02/25 09:45:45;;;;;;;14.83;4.57;;;4.40;86.00;;;;;;4970469;28;20171;-93
2022/02/25 09:48:11;;;;;;;14.17;4.67;;;4.50;85.90;;;;;;4973167;28;20274;-93
2022/02/25 09:50:42;;;;;;;17.87;4.87;;;4.40;86.10;;;;;;4975765;28;20219;-93
2022/02/25 09:53:09;;;;;;;16.27;4.27;;;4.40;86.50;;;;;;4976161;28;20285;-94
2022/02/25 09:55:37;;;;;;;5.43;2.97;;;4.30;87.00;;;;;;4977260;28;20183;-94
2022/02/25 10:36:57;;;;;;;6.77;3.10;;;4.00;90.30;;;;;;5099337;23;20255;-92
2022/02/25 10:39:56;;;;;;;13.17;3.93;;;4.10;90.00;;;;;;4978023;28;20202;-92
2022/02/25 10:45:07;;;;;;;13.00;3.90;;;4.20;89.60;;;;;;5153008;23;20277;-94
2022/02/25 10:47:43;;;;;;;8.60;3.20;;;4.30;89.80;;;;;;4993635;28;20158;-93
2022/02/25 10:50:16;;;;;;;17.17;4.67;;;4.20;89.70;;;;;;4991524;28;20202;-92
2022/02/25 10:52:58;;;;;;;17.03;4.17;;;4.20;90.20;;;;;;4997485;28;20218;-93
2022/02/25 10:55:37;;;;;;;14.87;4.50;;;4.20;90.30;;;;;;4992419;28;20180;-93
2022/02/25 10:58:18;;;;;;;10.03;3.23;;;4.10;90.30;;;;;;4992583;28;20677;-92
2022/02/25 11:01:02;;;;;;;10.20;3.53;;;4.00;90.10;;;;;;4995984;28;20139;-93
2022/02/25 11:03:31;;;;;;;9.73;3.80;;;4.20;90.50;;;;;;4995047;28;20190;-92
2022/02/25 11:05:58;;;;;;;8.77;3.10;;;4.20;90.10;;;;;;4998980;28;20175;-92
2022/02/25 11:08:23;;;;;;;17.80;3.77;;;4.30;90.50;;;;;;4994098;28;20218;-93
2022/02/25 11:10:50;;;;;;;9.73;3.50;;;4.30;90.20;;;;;;4997143;28;20163;-93
2022/02/25 11:13:18;;;;;;;10.70;3.60;;;4.40;90.30;;;;;;4987004;28;20183;-93
2022/02/25 11:15:44;;;;;;;15.60;3.73;;;4.80;90.70;;;;;;4994114;28;20221;-93
2022/02/25 11:18:11;;;;;;;8.83;3.93;;;5.10;90.30;;;;;;4988336;28;20219;-93
2022/02/25 11:20:38;;;;;;;7.63;3.17;;;5.20;89.80;;;;;;4994512;28;20188;-93
2022/02/25 11:23:09;;;;;;;12.63;4.10;;;5.30;89.20;;;;;;4987740;28;20157;-93
2022/02/25 11:25:38;;;;;;;5.83;3.07;;;5.60;89.30;;;;;;4989062;28;20184;-92
2022/02/25 11:28:04;;;;;;;6.13;2.63;;;5.90;89.20;;;;;;4984257;28;20208;-93
2022/02/25 11:30:42;;;;;;;11.23;3.97;;;5.90;88.20;;;;;;4981626;28;20242;-93
2022/02/25 11:33:25;;;;;;;9.20;2.87;;;5.80;88.10;;;;;;4974106;28;20180;-93
2022/02/25 11:35:59;;;;;;;8.70;2.53;;;5.60;86.90;;;;;;4980662;28;20709;-92
2022/02/25 11:38:34;;;;;;;10.13;2.33;;;5.50;87.70;;;;;;4979926;28;20590;-93
2022/02/25 11:41:27;;;;;;;14.73;2.60;;;5.30;87.60;;;;;;4982415;28;20183;-92
2022/02/25 11:44:12;;;;;;;5.93;2.40;;;5.30;87.90;;;;;;4989654;28;20211;-92
2022/02/25 11:46:44;;;;;;;6.83;2.23;;;5.30;87.40;;;;;;4990902;28;20252;-93
2022/02/25 11:49:15;;;;;;;9.77;2.53;;;5.50;88.00;;;;;;4987016;28;20201;-93
2022/02/25 11:51:51;;;;;;;7.37;2.77;;;5.70;87.30;;;;;;4989860;28;20184;-94
2022/02/25 11:54:24;;;;;;;6.27;1.93;;;5.90;87.60;;;;;;4985561;28;20178;-93
2022/02/25 11:56:59;;;;;;;4.83;2.10;;;5.70;86.60;;;;;;4988863;28;20179;-93
2022/02/25 11:59:34;;;;;;;9.77;3.13;;;5.50;87.70;;;;;;4988706;28;20209;-93
2022/02/25 12:02:22;;;;;;;11.13;2.70;;;5.20;88.10;;;;;;5000090;28;20215;-92
2022/02/25 12:05:11;;;;;;;15.27;2.73;;;5.00;89.50;;;;;;4999018;28;20236;-93
2022/02/25 12:07:49;;;;;;;9.37;2.40;;;5.10;89.80;;;;;;4996680;28;20209;-94
2022/02/25 12:10:37;;;;;;;7.23;2.43;;;5.10;89.40;;;;;;4995715;28;20232;-92
2022/02/25 12:13:19;;;;;;;5.77;2.10;;;5.10;89.10;;;;;;5000871;28;20564;-93
2022/02/25 12:16:00;;;;;;;4.60;1.90;;;5.20;88.90;;;;;;5000250;28;20195;-94
2022/02/25 12:18:48;;;;;;;8.57;2.67;;;5.20;89.10;;;;;;4994589;28;20218;-94
2022/02/25 12:21:17;;;;;;;2.33;1.77;;;5.20;88.60;;;;;;4998728;28;20199;-93
2022/02/25 12:23:48;;;;;;;4.63;1.87;;;5.30;88.60;;;;;;4997400;28;20179;-93
2022/02/25 12:26:18;;;;;;;3.77;1.90;;;5.10;88.70;;;;;;4989865;28;20250;-92
2022/02/25 12:28:50;;;;;;;6.63;1.80;;;4.90;88.40;;;;;;4991007;28;20211;-92
2022/02/25 12:31:42;;;;;;;7.93;2.40;;;4.90;88.80;;;;;;4982282;28;20179;-93
2022/02/25 12:34:08;;;;;;;7.03;1.97;;;4.80;88.90;;;;;;4987687;28;20177;-93
2022/02/25 12:36:44;;;;;;;6.03;2.30;;;4.80;88.90;;;;;;4979348;28;20181;-92
2022/02/25 12:39:25;;;;;;;8.47;2.47;;;5.10;89.00;;;;;;4969839;28;20206;-92
2022/02/25 12:41:56;;;;;;;7.90;2.40;;;5.50;88.40;;;;;;4978571;28;20244;-93
2022/02/25 12:44:37;;;;;;;6.67;2.47;;;5.80;88.00;;;;;;4979906;28;20191;-93
2022/02/25 12:47:07;;;;;;;13.30;2.90;;;5.80;87.30;;;;;;4983443;28;20643;-94
2022/02/25 12:49:45;;;;;;;10.27;2.87;;;5.90;87.30;;;;;;4992339;28;20292;-93
2022/02/25 12:52:32;;;;;;;10.90;2.60;;;6.30;87.40;;;;;;4990855;28;20189;-93
2022/02/25 12:55:20;;;;;;;10.90;2.47;;;6.40;86.70;;;;;;4984434;28;20242;-93
2022/02/25 13:19:26;;;;;;;16.17;3.63;;;6.70;85.20;;;;;;5187774;23;20256;-93
2022/02/25 13:27:07;;;;;;;14.87;3.30;;;6.50;83.90;;;;;;2500493;23;20229;-92
2022/02/25 13:29:34;;;;;;;14.13;2.77;;;6.50;83.40;;;;;;5067480;23;20247;-92
2022/02/25 13:32:03;;;;;;;16.17;3.60;;;6.50;83.20;;;;;;4956671;29;20179;-92
2022/02/25 13:34:29;;;;;;;18.23;3.17;;;6.50;83.70;;;;;;4961673;28;20185;-93
2022/02/25 13:36:58;;;;;;;15.73;2.90;;;6.40;83.50;;;;;;4953244;29;20174;-91
2022/02/25 13:39:29;;;;;;;11.17;2.97;;;6.10;83.80;;;;;;4957513;28;20214;-91
2022/02/25 13:41:59;;;;;;;8.47;2.50;;;5.30;86.00;;;;;;4965730;29;20185;-92
2022/02/25 13:52:22;;;;;;;17.90;3.87;;;5.30;89.20;;;;;;5346934;23;20246;-95
2022/02/25 13:55:14;;;;;;;16.57;3.70;;;5.50;89.10;;;;;;4970411;28;20175;-91
2022/02/25 14:23:43;;;;;;;15.17;3.13;;;5.80;87.90;;;;;;4962463;29;20221;-92
2022/02/25 14:26:13;;;;;;;17.77;3.43;;;5.80;88.30;;;;;;4950536;29;20258;-93
2022/02/25 14:28:42;;;;;;;19.80;4.53;;;6.00;88.60;;;;;;4948136;29;20222;-92
2022/02/25 14:31:08;;;;;;;15.00;3.73;;;5.90;88.60;;;;;;4939582;29;20205;-91
2022/02/25 14:33:45;;;;;;;15.87;3.97;;;5.80;88.70;;;;;;4939485;29;20190;-92
2022/02/25 14:36:25;;;;;;;16.70;4.33;;;5.80;88.50;;;;;;4940116;29;20173;-91
2022/02/25 14:38:58;;;;;;;15.90;4.43;;;5.70;88.90;;;;;;4943360;29;20209;-92
2022/02/25 14:41:45;;;;;;;23.90;5.27;;;5.80;88.90;;;;;;4952027;29;20170;-93
2022/02/25 14:44:17;;;;;;;20.70;4.45;;;5.80;88.40;;;;;;4943709;29;20427;-91
2022/02/25 14:47:10;;;;;;;24.40;4.63;;;5.80;88.10;;;;;;4945381;29;20663;-93
2022/02/25 14:52:15;;;;;;;17.50;3.87;;;5.80;87.80;;;;;;5002412;28;20221;-92
2022/02/25 14:54:41;;;;;;;17.87;3.17;;;5.80;87.60;;;;;;5004570;28;20291;-93
2022/02/25 14:57:11;;;;;;;7.43;2.40;;;5.80;87.70;;;;;;4999012;28;20289;-93
2022/02/25 14:59:37;;;;;;;8.73;2.87;;;5.70;87.40;;;;;;5000382;28;20219;-92
2022/02/25 15:02:13;;;;;;;8.13;2.50;;;5.70;87.60;;;;;;4995196;28;20210;-92
2022/02/25 15:04:42;;;;;;;7.40;2.40;;;5.70;87.80;;;;;;5001655;28;20181;-92
2022/02/25 15:07:08;;;;;;;8.47;2.23;;;5.60;87.60;;;;;;4997176;28;20185;-92
2022/02/25 15:09:34;;;;;;;8.63;2.57;;;5.60;87.40;;;;;;5002173;28;20199;-92
2022/02/25 15:11:59;;;;;;;11.03;2.80;;;5.60;87.10;;;;;;4998537;28;20280;-92
2022/02/25 15:14:25;;;;;;;10.83;2.93;;;5.60;86.80;;;;;;5004733;28;20188;-93
2022/02/25 15:16:54;;;;;;;20.57;3.20;;;5.70;86.60;;;;;;5004802;28;20192;-93
2022/02/25 15:19:21;;;;;;;11.57;2.60;;;5.70;86.40;;;;;;4999431;28;20212;-93
2022/02/25 15:21:48;;;;;;;8.17;2.60;;;5.70;86.60;;;;;;5004396;28;20252;-93
2022/02/25 15:24:15;;;;;;;7.47;2.50;;;5.70;86.40;;;;;;5001234;28;20181;-93
2022/02/25 15:26:49;;;;;;;12.00;2.50;;;5.80;86.40;;;;;;5003831;28;20184;-93
2022/02/25 15:34:37;;;;;;;13.93;3.38;;;5.90;86.10;;;;;;4954838;29;20437;-93
2022/02/25 15:37:06;;;;;;;21.60;3.43;;;5.90;85.50;;;;;;4961665;29;20179;-92
2022/02/25 15:39:35;;;;;;;12.67;3.40;;;5.90;85.80;;;;;;4959092;29;20226;-92
2022/02/25 15:42:09;;;;;;;17.13;3.53;;;5.90;85.70;;;;;;4961582;29;20175;-92
2022/02/25 16:39:14;;;;;;;31.17;5.87;;;5.50;86.00;;;;;;4968486;29;20283;-94
2022/02/25 16:41:44;;;;;;;28.87;5.47;;;5.40;86.00;;;;;;4955744;29;20175;-94
2022/02/25 16:44:12;;;;;;;32.27;6.07;;;5.40;86.20;;;;;;4954008;29;20180;-94
2022/02/25 16:46:40;;;;;;;30.53;5.33;;;5.40;86.30;;;;;;4953729;29;20272;-94
2022/02/25 16:49:06;;;;;;;39.03;7.03;;;5.30;86.40;;;;;;4947241;29;20290;-93
2022/02/25 16:51:34;;;;;;;44.50;7.50;;;5.30;86.60;;;;;;4944927;29;20659;-93
2022/02/25 16:54:00;;;;;;;31.47;6.90;;;5.30;86.60;;;;;;4950316;29;20185;-93
2022/02/25 16:56:27;;;;;;;29.60;5.40;;;5.30;86.60;;;;;;4949844;29;20209;-92
2022/02/25 16:58:53;;;;;;;27.17;6.17;;;5.30;86.90;;;;;;4942017;29;20742;-93
2022/02/25 17:01:19;;;;;;;35.73;7.23;;;5.30;86.90;;;;;;4941914;29;20228;-92
2022/02/25 17:03:44;;;;;;;41.30;8.00;;;5.30;87.10;;;;;;4941495;29;20268;-93
2022/02/25 17:06:11;;;;;;;39.40;6.70;;;5.30;87.10;;;;;;4941684;29;20650;-92
2022/02/25 17:08:41;;;;;;;41.13;6.53;;;5.30;87.20;;;;;;4942828;29;20197;-93
2022/02/25 17:11:07;;;;;;;39.97;7.37;;;5.30;87.10;;;;;;4943057;29;20793;-93
2022/02/25 17:13:33;;;;;;;39.70;7.10;;;5.30;87.00;;;;;;4943660;29;20181;-92
2022/02/25 17:15:58;;;;;;;31.10;6.53;;;5.40;86.70;;;;;;4963361;29;20181;-93
2022/02/25 17:18:24;;;;;;;46.13;7.93;;;5.30;86.70;;;;;;4943369;29;20237;-93
2022/02/25 17:20:52;;;;;;;46.67;8.40;;;5.30;86.80;;;;;;4941331;29;20651;-93
2022/02/25 17:23:18;;;;;;;32.40;7.03;;;5.30;87.00;;;;;;4942535;29;20668;-92
2022/02/25 17:28:19;;;;;;;47.60;8.90;;;5.30;86.90;;;;;;5337897;23;20222;-91
2022/02/25 17:30:49;;;;;;;39.87;6.83;;;5.20;86.90;;;;;;5007237;28;20238;-94
2022/02/25 17:33:27;;;;;;;44.17;7.63;;;5.20;86.90;;;;;;5003225;28;20211;-93
2022/02/25 17:35:58;;;;;;;51.27;10.07;;;5.20;86.90;;;;;;5011446;28;20165;-93
2022/02/25 17:38:27;;;;;;;38.47;7.20;;;5.10;86.80;;;;;;5001481;28;20207;-93
2022/02/25 17:40:59;;;;;;;47.80;7.40;;;5.30;86.30;;;;;;5001313;28;20679;-94
2022/02/25 17:43:24;;;;;;;45.37;7.83;;;5.20;86.10;;;;;;5002764;28;20174;-94
2022/02/25 17:45:57;;;;;;;45.30;6.43;;;5.30;85.90;;;;;;5007858;28;20198;-93
2022/02/25 17:48:26;;;;;;;42.67;8.07;;;5.20;85.80;;;;;;5005532;28;20208;-93
2022/02/25 17:50:55;;;;;;;27.00;5.37;;;5.30;85.90;;;;;;5008413;28;20171;-93
2022/02/25 17:53:29;;;;;;;41.90;6.83;;;5.20;85.80;;;;;;5006337;28;20193;-94
2022/02/25 18:14:44;;;;;;;50.10;7.10;;;5.10;85.60;;;;;;6326680;22;20187;-94
2022/02/25 18:17:16;;;;;;;48.30;7.75;;;5.20;85.50;;;;;;6018151;22;10713386;-96
2022/02/25 18:22:26;;;;;;;41.50;6.63;;;5.10;85.70;;;;;;6286622;22;20207;-93
2022/02/25 18:25:03;;;;;;;42.47;8.67;;;5.00;85.80;;;;;;6297358;22;20536;-92
2022/02/25 18:27:29;;;;;;;47.70;7.97;;;5.00;85.80;;;;;;6287485;22;20158;-92
2022/02/25 18:35:07;;;;;;;50.17;9.43;;;4.90;85.80;;;;;;6365772;22;20210;-91
2022/02/25 18:38:05;;;;;;;37.00;7.23;;;4.90;85.90;;;;;;6346179;22;20153;-91
2022/02/25 19:16:52;;;;;;;47.00;7.80;;;4.80;85.90;;;;;;6348406;22;20214;-93
2022/02/25 19:19:18;;;;;;;52.87;9.93;;;4.80;86.10;;;;;;6333811;22;20196;-93
2022/02/25 19:21:51;;;;;;;43.20;7.77;;;4.80;86.20;;;;;;6331633;22;20151;-92
2022/02/25 19:24:41;;;;;;;40.30;8.27;;;4.80;86.20;;;;;;6330888;22;20151;-93
2022/02/25 19:27:13;;;;;;;52.47;8.33;;;4.80;86.10;;;;;;6324192;22;20150;-92
2022/02/25 19:30:17;;;;;;;44.43;7.07;;;4.80;86.20;;;;;;6335622;22;20178;-93
2022/02/25 19:44:08;;;;;;;44.97;6.97;;;4.70;86.70;;;;;;6349440;22;20235;-92
2022/02/25 19:46:40;;;;;;;40.40;7.20;;;4.70;86.60;;;;;;6338218;22;20150;-91
2022/02/25 19:49:12;;;;;;;52.47;8.60;;;4.80;86.60;;;;;;6339933;22;20173;-92
2022/02/25 19:51:41;;;;;;;37.47;7.13;;;4.80;86.40;;;;;;6340782;22;20178;-92
2022/02/25 19:59:32;;;;;;;39.73;7.63;;;4.90;86.30;;;;;;6337117;22;20188;-93
2022/02/25 20:34:38;;;;;;;35.47;7.97;;;5.00;86.60;;;;;;6316791;22;20210;-93
2022/02/25 20:43:03;;;;;;;53.90;8.07;;;5.10;86.40;;;;;;6360081;22;20165;-92
2022/02/25 20:45:33;;;;;;;49.00;7.93;;;5.10;86.40;;;;;;6356405;22;20489;-92
2022/02/25 20:47:59;;;;;;;39.27;6.60;;;5.00;86.70;;;;;;6323449;22;20222;-93
2022/02/25 20:53:28;;;;;;;32.07;6.87;;;5.20;86.80;;;;;;6336834;22;20154;-93
2022/02/25 20:56:09;;;;;;;35.13;6.23;;;5.20;87.00;;;;;;6329941;22;20163;-93
2022/02/25 20:58:47;;;;;;;35.20;6.67;;;5.20;86.90;;;;;;6338326;22;20158;-93
2022/02/25 21:01:28;;;;;;;37.63;7.10;;;5.30;86.90;;;;;;6333746;22;20197;-93
2022/02/25 21:04:25;;;;;;;45.43;9.07;;;5.30;86.80;;;;;;6333243;22;20172;-93
2022/02/25 21:07:12;;;;;;;39.50;9.23;;;5.30;86.80;;;;;;6333912;22;20138;-93
2022/02/25 21:09:57;;;;;;;;;;;;;;;;;;;;;
2022/02/25 21:12:26;;;;;;;33.97;6.97;;;5.30;86.30;;;;;;6357087;22;20142;-93
2022/02/25 21:15:06;;;;;;;49.60;7.77;;;5.40;86.00;;;;;;6332881;22;20177;-93
2022/02/25 21:17:34;;;;;;;36.80;7.20;;;5.40;86.00;;;;;;6321932;22;20190;-92
2022/02/25 21:20:21;;;;;;;53.63;7.77;;;5.40;86.20;;;;;;6333842;22;20223;-92
2022/02/25 21:22:49;;;;;;;43.27;6.30;;;5.40;86.20;;;;;;6329678;22;20203;-93
2022/02/25 21:28:05;;;;;;;46.87;6.97;;;5.40;86.00;;;;;;6336855;22;20160;-94
2022/02/25 21:30:37;;;;;;;43.33;7.53;;;5.50;86.00;;;;;;6332302;22;20160;-93
2022/02/25 21:33:06;;;;;;;45.00;6.57;;;5.50;86.00;;;;;;6326999;22;20158;-93
2022/02/25 21:35:41;;;;;;;34.33;5.83;;;5.50;86.00;;;;;;6324456;22;20174;-93
2022/02/25 21:38:23;;;;;;;35.57;6.17;;;5.50;85.70;;;;;;6332723;22;20175;-93
2022/02/25 21:40:51;;;;;;;38.83;7.63;;;5.50;85.80;;;;;;6340343;22;20144;-93
2022/02/25 21:46:57;;;;;;;34.23;6.77;;;5.60;85.80;;;;;;6242471;23;20149;-94
2022/02/25 21:49:25;;;;;;;39.07;7.40;;;5.60;86.20;;;;;;6366070;22;20186;-92